createdAt,value
2022-12-11T09:15:32.366Z,93.62
2022-12-11T09:19:38.262Z,92.69
2022-12-11T09:22:52.941Z,92.40
2022-12-11T10:01:50.119Z,91.54
2022-12-11T10:05:37.992Z,91.90
2022-12-11T10:20:30.935Z,90.58
2022-12-11T10:23:50.990Z,90.22
2022-12-11T10:27:20.030Z,90.17
2022-12-11T10:30:34.833Z,89.44
2022-12-11T10:34:05.952Z,90.27
2022-12-11T10:37:15.040Z,89.51
2022-12-11T10:40:36.990Z,90.09
2022-12-11T10:43:44.999Z,90.16
2022-12-11T10:47:25.077Z,89.51
2022-12-11T10:50:34.375Z,90.40
2022-12-11T10:54:04.009Z,90.57
2022-12-11T10:57:15.510Z,91.12
2022-12-11T11:00:42.014Z,91.15
2022-12-11T11:03:57.630Z,91.17
2022-12-11T11:07:26.024Z,90.77
2022-12-11T11:10:37.074Z,91.05
2022-12-11T11:13:52.126Z,90.31
2022-12-11T11:17:01.194Z,90.65
2022-12-11T11:20:22.278Z,90.75
2022-12-11T11:23:30.658Z,90.98
2022-12-11T11:27:12.266Z,90.24
2022-12-11T11:34:38.055Z,89.54
2022-12-11T11:37:56.109Z,88.82
2022-12-11T11:41:22.008Z,88.51
2022-12-11T11:44:50.966Z,88.72
2022-12-11T11:48:11.613Z,89.06
2022-12-11T11:51:33.990Z,89.25
2022-12-11T11:54:47.971Z,88.70
2022-12-11T11:58:04.059Z,88.58
2022-12-11T12:01:22.010Z,88.59
2022-12-11T12:04:41.021Z,88.57
2022-12-11T12:08:06.072Z,88.51
2022-12-11T12:11:32.184Z,88.60
2022-12-11T12:19:24.038Z,88.45
2022-12-11T12:22:52.547Z,87.96
2022-12-11T12:31:17.632Z,85.73
2022-12-11T12:35:03.663Z,85.74
2022-12-11T12:38:23.666Z,87.35
2022-12-11T12:41:57.077Z,87.88
2022-12-11T12:45:28.038Z,87.87
2022-12-11T12:48:36.948Z,87.37
2022-12-11T12:51:46.955Z,88.08
2022-12-11T12:55:06.924Z,88.00
2022-12-11T12:58:47.533Z,87.67
2022-12-11T13:02:08.544Z,87.27
2022-12-11T13:05:25.146Z,87.46
2022-12-11T13:08:54.560Z,86.87
2022-12-11T13:12:13.281Z,87.50
2022-12-11T13:15:39.555Z,87.17
2022-12-11T13:18:59.678Z,86.79
2022-12-11T13:22:23.102Z,87.17
2022-12-11T13:49:51.699Z,87.26
2022-12-11T13:53:37.056Z,87.12
2022-12-11T14:11:44.374Z,87.37
2022-12-11T14:37:41.598Z,88.30
2022-12-11T14:49:19.304Z,89.11
2022-12-11T15:00:07.166Z,90.41
2022-12-11T15:07:48.784Z,91.59
2022-12-11T15:15:35.742Z,91.49
2022-12-11T15:30:44.784Z,90.36
2022-12-11T15:38:16.985Z,90.01
2022-12-11T15:56:49.843Z,88.84
2022-12-11T16:04:53.242Z,88.37
2022-12-11T16:08:15.415Z,87.34
2022-12-11T16:11:42.847Z,87.88
2022-12-11T16:23:08.569Z,87.24
2022-12-11T16:26:43.789Z,86.92
2022-12-11T16:35:01.541Z,86.15
2022-12-11T16:38:07.464Z,86.98
2022-12-11T16:42:19.022Z,86.54
2022-12-11T16:45:44.159Z,86.00
2022-12-11T16:49:28.821Z,86.08
2022-12-11T16:52:36.730Z,85.55
2022-12-11T17:15:49.874Z,85.80
2022-12-11T17:19:42.203Z,85.29
2022-12-11T17:22:58.267Z,85.06
2022-12-11T17:26:34.306Z,85.11
2022-12-11T17:29:45.758Z,85.55
2022-12-11T17:37:00.795Z,84.74
2022-12-11T17:40:38.202Z,85.37
2022-12-11T17:56:51.220Z,85.25
2022-12-11T18:14:54.762Z,85.87
2022-12-11T18:22:16.863Z,85.99
2022-12-11T18:25:47.724Z,86.31
2022-12-11T18:33:22.416Z,86.17
2022-12-11T18:36:41.853Z,86.50
2022-12-11T18:39:48.943Z,86.62
2022-12-11T18:43:19.503Z,86.77
2022-12-11T18:46:37.495Z,86.64
2022-12-11T18:54:10.692Z,87.54
2022-12-11T19:16:27.613Z,87.47
2022-12-11T19:24:05.666Z,86.80
2022-12-11T19:31:23.267Z,87.85
2022-12-11T19:34:37.678Z,87.86
2022-12-11T19:41:56.576Z,88.75
2022-12-11T19:45:32.660Z,88.83
2022-12-11T19:56:34.606Z,89.71
2022-12-11T20:00:51.726Z,89.12
2022-12-11T20:04:11.651Z,89.63
2022-12-11T20:10:55.127Z,89.69
2022-12-11T20:14:09.698Z,89.98
2022-12-11T20:25:24.727Z,92.06
2022-12-11T20:32:36.642Z,91.70
2022-12-11T20:35:51.762Z,92.15
2022-12-11T20:39:36.590Z,92.30
2022-12-11T20:42:57.594Z,91.96
2022-12-11T20:46:21.681Z,91.40
2022-12-11T21:01:00.718Z,90.74
2022-12-11T21:04:48.574Z,91.09
2022-12-11T21:15:47.442Z,91.47
2022-12-11T21:19:51.273Z,91.88
2022-12-11T21:23:10.926Z,92.51
2022-12-11T21:26:31.393Z,92.73
2022-12-11T21:33:05.266Z,93.90
2022-12-11T21:36:18.521Z,94.02
2022-12-11T21:39:27.694Z,94.13
2022-12-11T21:43:21.204Z,93.75
2022-12-11T21:46:57.635Z,93.28
2022-12-11T21:50:16.089Z,94.01
2022-12-11T21:53:24.553Z,93.84
2022-12-11T22:12:09.926Z,93.96
2022-12-11T22:15:23.315Z,93.70
2022-12-11T22:19:30.806Z,93.99
2022-12-11T22:22:48.798Z,94.10
2022-12-11T22:29:58.849Z,95.41
2022-12-11T22:33:25.402Z,97.17
2022-12-11T22:36:40.741Z,98.25
2022-12-11T22:40:04.011Z,98.42
2022-12-11T22:43:23.798Z,98.79
2022-12-11T22:46:34.302Z,99.26
2022-12-11T22:49:56.759Z,99.86
2022-12-11T22:53:14.282Z,99.63
2022-12-11T22:56:39.509Z,99.53
2022-12-11T23:00:42.550Z,98.14
2022-12-11T23:03:53.088Z,98.04
2022-12-11T23:07:11.762Z,97.71
2022-12-11T23:10:23.668Z,97.74
2022-12-11T23:13:45.453Z,97.26
2022-12-11T23:16:59.395Z,97.03
2022-12-11T23:20:09.221Z,96.99
2022-12-11T23:23:23.755Z,96.39
2022-12-11T23:26:32.894Z,96.31
2022-12-11T23:29:47.606Z,96.19
2022-12-11T23:32:58.804Z,96.81
2022-12-11T23:36:28.524Z,95.55
2022-12-11T23:52:56.631Z,95.68
2022-12-11T23:56:18.313Z,95.81
